createdAt,value
2019-05-06T00:00:15.888Z,91.70
2019-05-06T00:02:43.569Z,91.70
2019-05-06T00:05:10.051Z,92.00
2019-05-06T00:07:36.311Z,92.00
2019-05-06T00:10:02.940Z,92.20
2019-05-06T00:12:29.023Z,92.10
2019-05-06T00:14:55.083Z,92.20
2019-05-06T00:17:21.144Z,92.50
2019-05-06T00:19:47.168Z,92.30
2019-05-06T00:22:14.242Z,92.70
2019-05-06T00:24:44.025Z,92.50
2019-05-06T00:27:26.868Z,92.70
2019-05-06T00:29:54.996Z,92.50
2019-05-06T00:32:20.992Z,92.40
2019-05-06T00:34:47.088Z,92.40
2019-05-06T00:37:14.621Z,92.40
2019-05-06T00:39:44.412Z,92.60
2019-05-06T00:42:21.463Z,92.50
2019-05-06T00:44:47.524Z,92.40
2019-05-06T00:47:13.644Z,92.60
2019-05-06T00:49:39.716Z,93.10
2019-05-06T00:52:05.785Z,92.90
2019-05-06T00:54:33.925Z,92.90
2019-05-06T00:56:59.903Z,92.70
2019-05-06T00:59:25.960Z,92.50
2019-05-06T01:01:53.837Z,92.50
2019-05-06T01:04:20.214Z,92.60
2019-05-06T01:06:46.270Z,92.60
2019-05-06T01:09:14.618Z,93.00
2019-05-06T01:11:41.250Z,92.80
2019-05-06T01:14:11.973Z,92.70
2019-05-06T01:16:38.063Z,92.60
2019-05-06T01:19:04.696Z,92.50
2019-05-06T01:21:30.949Z,92.60
2019-05-06T01:23:57.051Z,92.80
2019-05-06T01:26:24.234Z,93.10
2019-05-06T01:28:50.628Z,92.90
2019-05-06T01:31:16.659Z,92.90
2019-05-06T01:33:42.699Z,92.80
2019-05-06T01:36:08.729Z,93.10
2019-05-06T01:38:36.703Z,93.00
2019-05-06T01:41:16.746Z,93.00
2019-05-06T01:43:44.208Z,92.90
2019-05-06T01:46:10.271Z,93.10
2019-05-06T01:48:48.804Z,93.00
2019-05-06T01:51:19.384Z,93.10
2019-05-06T01:53:46.038Z,93.20
2019-05-06T01:56:12.125Z,92.90
2019-05-06T01:58:38.273Z,93.00
2019-05-06T02:01:04.293Z,93.10
2019-05-06T02:03:30.381Z,93.10
2019-05-06T02:05:56.424Z,93.40
2019-05-06T02:08:24.340Z,93.80
2019-05-06T02:10:50.458Z,93.60
2019-05-06T02:13:16.499Z,93.40
2019-05-06T02:15:42.593Z,93.30
2019-05-06T02:18:10.502Z,93.40
2019-05-06T02:20:38.474Z,93.60
2019-05-06T02:23:06.447Z,93.80
2019-05-06T02:25:34.406Z,94.00
2019-05-06T02:28:00.571Z,94.10
2019-05-06T02:30:40.528Z,93.90
2019-05-06T02:33:11.302Z,94.10
2019-05-06T02:35:45.723Z,94.50
2019-05-06T02:38:33.197Z,94.70
2019-05-06T02:40:53.978Z,94.80
2019-05-06T02:43:22.916Z,94.80
2019-05-06T02:45:47.994Z,94.80
2019-05-06T02:48:18.704Z,95.00
2019-05-06T02:50:46.691Z,95.20
2019-05-06T02:53:14.783Z,95.30
2019-05-06T02:55:43.105Z,95.40
2019-05-06T02:58:08.847Z,95.30
2019-05-06T03:00:34.887Z,95.30
2019-05-06T03:03:02.895Z,95.40
2019-05-06T03:05:28.889Z,95.50
2019-05-06T03:07:57.678Z,95.60
2019-05-06T03:10:24.759Z,95.90
2019-05-06T03:12:53.494Z,95.60
2019-05-06T03:15:18.788Z,95.70
2019-05-06T03:17:44.823Z,96.00
2019-05-06T03:20:25.463Z,96.00
2019-05-06T03:22:54.348Z,96.00
2019-05-06T03:25:24.036Z,96.10
2019-05-06T03:27:53.095Z,96.30
2019-05-06T03:30:18.207Z,96.40
2019-05-06T03:33:19.869Z,96.50
2019-05-06T03:35:27.319Z,96.70
2019-05-06T03:37:40.137Z,96.80
2019-05-06T03:40:06.489Z,97.10
2019-05-06T03:42:33.457Z,96.80
2019-05-06T03:45:04.263Z,96.80
2019-05-06T03:47:34.809Z,96.90
2019-05-06T03:50:04.292Z,97.00
2019-05-06T03:52:29.413Z,96.90
2019-05-06T03:54:56.742Z,97.10
2019-05-06T03:57:25.686Z,97.60
2019-05-06T03:59:52.919Z,97.40
2019-05-06T04:02:19.248Z,97.30
2019-05-06T04:04:45.318Z,97.40
2019-05-06T04:07:13.946Z,97.70
2019-05-06T04:09:39.759Z,97.90
2019-05-06T04:12:06.307Z,97.70
2019-05-06T04:14:33.742Z,97.80
2019-05-06T04:17:07.805Z,98.20
2019-05-06T04:19:35.771Z,98.30
2019-05-06T04:22:23.379Z,98.20
2019-05-06T04:24:54.014Z,98.00
2019-05-06T04:27:28.588Z,98.60
2019-05-06T04:29:54.851Z,98.50
2019-05-06T04:32:23.334Z,98.50
2019-05-06T04:34:49.836Z,98.30
2019-05-06T04:37:16.998Z,98.30
2019-05-06T04:39:43.435Z,98.30
2019-05-06T04:42:09.945Z,98.10
2019-05-06T04:44:36.162Z,98.20
2019-05-06T04:47:05.028Z,98.30
2019-05-06T04:49:33.086Z,98.80
2019-05-06T04:51:58.201Z,98.80
2019-05-06T04:54:26.556Z,98.90
2019-05-06T04:56:53.695Z,98.90
2019-05-06T04:59:22.518Z,98.90
2019-05-06T05:01:48.079Z,98.80
2019-05-06T05:04:26.920Z,98.90
2019-05-06T05:06:43.270Z,99.00
2019-05-06T05:09:14.487Z,99.30
2019-05-06T05:11:46.253Z,99.10
2019-05-06T05:14:14.209Z,99.40
2019-05-06T05:16:44.668Z,99.40
2019-05-06T05:19:12.740Z,99.50
2019-05-06T05:21:38.909Z,99.80
2019-05-06T05:24:05.140Z,99.70
2019-05-06T05:26:32.269Z,99.60
2019-05-06T05:28:59.011Z,99.40
2019-05-06T05:31:25.074Z,99.30
2019-05-06T05:33:52.606Z,99.40
2019-05-06T05:36:18.844Z,99.40
2019-05-06T05:38:44.873Z,99.30
2019-05-06T05:41:12.085Z,99.50
2019-05-06T05:43:49.243Z,99.40
2019-05-06T05:46:15.302Z,99.40
2019-05-06T05:48:43.421Z,99.40
2019-05-06T05:51:09.440Z,99.70
2019-05-06T05:53:35.716Z,99.90
2019-05-06T05:56:02.560Z,99.90
2019-05-06T05:58:28.855Z,99.90
2019-05-06T06:00:55.077Z,99.90
2019-05-06T06:03:22.093Z,99.90
2019-05-06T06:05:48.374Z,99.80
2019-05-06T06:08:14.430Z,99.90
2019-05-06T06:10:45.357Z,99.90
2019-05-06T06:13:12.800Z,99.90
2019-05-06T06:15:58.563Z,99.90
2019-05-06T06:18:33.363Z,99.90
2019-05-06T06:21:27.150Z,99.90
2019-05-06T06:23:52.867Z,99.90
2019-05-06T06:26:19.085Z,99.90
2019-05-06T06:28:45.127Z,99.90
2019-05-06T06:31:18.844Z,99.90
2019-05-06T06:33:44.882Z,99.90
2019-05-06T06:36:25.045Z,99.90
2019-05-06T06:38:53.066Z,99.90
2019-05-06T06:41:19.329Z,99.90
2019-05-06T06:43:47.287Z,99.90
2019-05-06T06:46:13.310Z,99.90
2019-05-06T06:48:39.460Z,99.90
2019-05-06T06:51:05.735Z,99.90
2019-05-06T06:53:32.697Z,99.90
2019-05-06T06:56:18.989Z,99.90
2019-05-06T06:59:03.364Z,99.90
2019-05-06T07:01:33.168Z,99.90
2019-05-06T07:04:09.627Z,99.90
2019-05-06T07:06:43.961Z,99.90
2019-05-06T07:09:12.427Z,99.90
2019-05-06T07:11:38.135Z,99.90
2019-05-06T07:14:04.263Z,99.90
2019-05-06T07:16:32.652Z,99.90
2019-05-06T07:18:58.300Z,99.90
2019-05-06T07:21:34.132Z,99.90
2019-05-06T07:24:02.052Z,99.90
2019-05-06T07:26:31.684Z,99.90
2019-05-06T07:28:57.921Z,99.90
2019-05-06T07:31:26.704Z,99.90
2019-05-06T07:33:52.333Z,99.90
2019-05-06T07:36:20.144Z,99.90
2019-05-06T07:38:49.552Z,99.90
2019-05-06T07:41:18.215Z,99.90
2019-05-06T07:43:46.163Z,99.90
2019-05-06T07:46:23.633Z,99.90
2019-05-06T07:48:51.773Z,99.90
2019-05-06T07:51:17.744Z,99.90
2019-05-06T07:53:43.884Z,99.90
2019-05-06T07:56:09.939Z,99.90
2019-05-06T07:58:35.973Z,99.90
2019-05-06T08:01:02.806Z,99.90
2019-05-06T08:03:28.985Z,99.90
2019-05-06T08:05:58.675Z,99.90
2019-05-06T08:08:23.166Z,99.60
2019-05-06T08:10:49.321Z,99.10
2019-05-06T08:13:15.406Z,99.40
2019-05-06T08:15:42.076Z,99.40
2019-05-06T08:18:08.283Z,99.60
2019-05-06T08:20:37.315Z,99.10
2019-05-06T08:23:09.980Z,99.40
2019-05-06T08:25:37.930Z,99.20
2019-05-06T08:28:03.972Z,99.10
2019-05-06T08:30:32.341Z,98.40
2019-05-06T08:32:58.394Z,98.60
2019-05-06T08:35:24.454Z,98.70
2019-05-06T08:37:50.516Z,97.90
2019-05-06T08:40:16.852Z,98.30
2019-05-06T08:42:43.686Z,98.20
2019-05-06T08:45:12.678Z,97.90
2019-05-06T08:47:38.692Z,97.80
2019-05-06T08:50:12.680Z,97.30
2019-05-06T08:52:56.989Z,97.10
2019-05-06T08:55:28.013Z,96.80
2019-05-06T08:57:54.067Z,96.90
2019-05-06T09:00:20.175Z,97.20
2019-05-06T09:02:46.319Z,96.60
2019-05-06T09:05:12.489Z,96.30
2019-05-06T09:07:38.531Z,96.30
2019-05-06T09:10:04.676Z,96.20
2019-05-06T09:12:32.803Z,95.90
2019-05-06T09:14:58.675Z,95.60
2019-05-06T09:17:24.712Z,95.50
2019-05-06T09:19:53.265Z,95.40
2019-05-06T09:22:18.681Z,95.50
2019-05-06T09:24:44.729Z,95.00
2019-05-06T09:27:12.696Z,94.80
2019-05-06T09:29:42.740Z,94.90
2019-05-06T09:32:13.754Z,95.10
2019-05-06T09:34:42.887Z,95.00
2019-05-06T09:37:14.065Z,94.70
2019-05-06T09:39:42.985Z,94.90
2019-05-06T09:42:09.502Z,94.90
2019-05-06T09:44:35.553Z,94.90
2019-05-06T09:47:02.398Z,94.70
2019-05-06T09:49:32.850Z,94.80
2019-05-06T09:51:58.488Z,93.40
2019-05-06T09:54:29.297Z,93.00
2019-05-06T09:57:06.190Z,92.90
2019-05-06T09:59:32.401Z,93.40
2019-05-06T10:01:58.443Z,93.70
2019-05-06T10:04:24.494Z,93.70
2019-05-06T10:06:57.361Z,93.60
2019-05-06T10:09:18.526Z,93.60
2019-05-06T10:11:44.548Z,93.60
2019-05-06T10:14:12.891Z,93.90
2019-05-06T10:16:38.625Z,93.90
2019-05-06T10:19:04.876Z,93.40
2019-05-06T10:21:32.307Z,92.70
2019-05-06T10:23:58.558Z,93.10
2019-05-06T10:26:24.650Z,92.50
2019-05-06T10:28:58.449Z,93.10
2019-05-06T10:31:24.596Z,92.20
2019-05-06T10:34:10.491Z,92.60
2019-05-06T10:36:42.916Z,92.20
2019-05-06T10:39:12.541Z,91.90
2019-05-06T10:41:42.264Z,91.70
2019-05-06T10:44:18.375Z,90.90
2019-05-06T10:46:52.737Z,90.30
2019-05-06T10:49:17.210Z,90.50
2019-05-06T10:51:48.294Z,90.00
2019-05-06T10:54:14.431Z,89.30
2019-05-06T10:56:50.763Z,89.00
2019-05-06T10:59:15.046Z,85.90
2019-05-06T11:01:43.177Z,87.10
2019-05-06T11:04:09.221Z,86.00
2019-05-06T11:06:35.293Z,86.20
2019-05-06T11:09:03.188Z,83.40
2019-05-06T11:11:35.030Z,80.80
2019-05-06T11:13:57.585Z,81.90
2019-05-06T11:16:23.859Z,79.70
2019-05-06T11:18:50.019Z,78.30
2019-05-06T11:21:16.173Z,75.70
2019-05-06T11:23:42.294Z,73.20
2019-05-06T11:26:08.351Z,76.90
2019-05-06T11:28:44.983Z,73.80
2019-05-06T11:31:18.933Z,74.40
2019-05-06T11:33:52.940Z,74.80
2019-05-06T11:36:22.990Z,74.30
2019-05-06T11:38:48.938Z,72.90
2019-05-06T11:41:14.982Z,73.20
2019-05-06T11:43:42.819Z,74.40
2019-05-06T11:46:08.994Z,76.50
2019-05-06T11:48:35.062Z,74.30
2019-05-06T11:51:03.155Z,75.20
2019-05-06T11:53:29.285Z,74.10
2019-05-06T11:55:55.330Z,75.80
2019-05-06T11:58:42.466Z,77.30
2019-05-06T12:01:19.129Z,79.30
2019-05-06T12:03:45.233Z,76.60
2019-05-06T12:06:13.071Z,76.60
2019-05-06T12:08:39.374Z,73.00
2019-05-06T12:11:05.413Z,72.30
2019-05-06T12:13:33.543Z,69.50
2019-05-06T12:16:02.260Z,72.90
2019-05-06T12:18:27.520Z,73.50
2019-05-06T12:20:53.574Z,70.30
2019-05-06T12:23:22.268Z,65.10
2019-05-06T12:25:47.614Z,64.20
2019-05-06T12:28:13.739Z,67.20
2019-05-06T12:30:39.940Z,66.40
2019-05-06T12:33:07.897Z,64.60
2019-05-06T12:35:35.880Z,66.70
2019-05-06T12:38:05.404Z,66.40
2019-05-06T12:40:32.071Z,66.20
2019-05-06T12:43:03.839Z,68.50
2019-05-06T12:45:32.649Z,67.50
2019-05-06T12:47:59.905Z,68.30
2019-05-06T12:50:26.044Z,68.80
2019-05-06T12:52:52.723Z,70.50
2019-05-06T12:55:24.404Z,69.70
2019-05-06T12:57:49.406Z,71.90
2019-05-06T13:00:15.788Z,73.80
2019-05-06T13:02:43.603Z,72.40
2019-05-06T13:05:12.460Z,71.60
2019-05-06T13:07:46.189Z,71.20
2019-05-06T13:10:13.278Z,70.60
2019-05-06T13:12:42.413Z,71.20
2019-05-06T13:15:09.327Z,69.10
2019-05-06T13:17:35.384Z,70.40
2019-05-06T13:20:01.492Z,68.20
2019-05-06T13:22:33.970Z,69.10
2019-05-06T13:25:00.269Z,71.10
2019-05-06T13:27:27.488Z,73.40
2019-05-06T13:29:53.636Z,74.50
2019-05-06T13:32:21.691Z,76.60
2019-05-06T13:34:47.712Z,74.60
2019-05-06T13:37:18.602Z,73.40
2019-05-06T13:39:44.792Z,72.90
2019-05-06T13:42:13.246Z,71.70
2019-05-06T13:44:39.503Z,69.60
2019-05-06T13:47:07.458Z,69.80
2019-05-06T13:49:38.268Z,69.50
2019-05-06T13:52:06.312Z,68.40
2019-05-06T13:54:32.708Z,69.70
2019-05-06T13:56:58.723Z,68.10
2019-05-06T13:59:29.651Z,70.50
2019-05-06T14:01:54.843Z,70.30
2019-05-06T14:04:23.927Z,66.80
2019-05-06T14:06:48.956Z,68.20
2019-05-06T14:09:28.646Z,65.90
2019-05-06T14:11:42.995Z,67.10
2019-05-06T14:14:09.082Z,67.80
2019-05-06T14:16:35.110Z,67.40
2019-05-06T14:19:04.024Z,68.50
2019-05-06T14:21:29.126Z,67.50
2019-05-06T14:23:55.238Z,68.50
2019-05-06T14:26:33.230Z,67.10
2019-05-06T14:29:07.161Z,67.70
2019-05-06T14:31:35.124Z,69.40
2019-05-06T14:34:01.175Z,70.50
2019-05-06T14:36:27.839Z,68.80
2019-05-06T14:38:53.983Z,65.70
2019-05-06T14:41:27.048Z,65.20
2019-05-06T14:43:49.957Z,65.20
2019-05-06T14:46:16.526Z,66.20
2019-05-06T14:48:43.764Z,66.40
2019-05-06T14:51:09.923Z,65.60
2019-05-06T14:53:37.068Z,65.80
2019-05-06T14:56:13.845Z,65.20
2019-05-06T14:58:39.924Z,63.50
2019-05-06T15:01:05.990Z,62.70
2019-05-06T15:03:32.670Z,61.20
2019-05-06T15:05:58.900Z,59.20
2019-05-06T15:08:25.021Z,57.40
2019-05-06T15:10:51.193Z,57.90
2019-05-06T15:13:17.262Z,59.20
2019-05-06T15:15:43.309Z,57.30
2019-05-06T15:18:09.389Z,59.70
2019-05-06T15:20:35.447Z,59.30
2019-05-06T15:23:04.308Z,61.60
2019-05-06T15:25:29.434Z,60.70
2019-05-06T15:27:55.465Z,60.00
2019-05-06T15:30:23.525Z,60.50
2019-05-06T15:32:49.567Z,59.10
2019-05-06T15:35:23.463Z,58.80
2019-05-06T15:37:53.340Z,60.70
2019-05-06T15:40:31.908Z,60.00
2019-05-06T15:42:47.907Z,60.90
2019-05-06T15:45:14.438Z,59.30
2019-05-06T15:47:42.619Z,60.30
2019-05-06T15:50:08.850Z,60.80
2019-05-06T15:52:34.918Z,60.80
2019-05-06T15:55:03.110Z,62.50
2019-05-06T15:57:29.005Z,62.10
2019-05-06T15:59:55.079Z,62.00
2019-05-06T16:02:23.244Z,64.10
2019-05-06T16:04:49.169Z,64.40
2019-05-06T16:07:15.261Z,64.00
2019-05-06T16:09:42.878Z,63.20
2019-05-06T16:12:09.178Z,63.00
2019-05-06T16:14:35.242Z,64.70
2019-05-06T16:17:01.316Z,64.40
2019-05-06T16:19:27.389Z,64.20
2019-05-06T16:21:53.416Z,63.90
2019-05-06T16:24:27.448Z,64.50
2019-05-06T16:26:53.475Z,64.00
2019-05-06T16:29:22.393Z,64.10
2019-05-06T16:31:48.558Z,65.20
2019-05-06T16:34:14.787Z,67.00
2019-05-06T16:36:43.155Z,66.40
2019-05-06T16:39:08.901Z,65.20
2019-05-06T16:41:34.941Z,64.80
2019-05-06T16:44:02.134Z,65.50
2019-05-06T16:46:28.393Z,67.00
2019-05-06T16:48:54.431Z,64.50
2019-05-06T16:51:22.300Z,66.90
2019-05-06T16:53:48.539Z,66.10
2019-05-06T16:56:16.489Z,66.20
2019-05-06T16:58:47.220Z,66.30
2019-05-06T17:01:15.364Z,68.30
2019-05-06T17:03:52.608Z,68.60
2019-05-06T17:06:33.048Z,67.90
2019-05-06T17:08:59.267Z,68.40
2019-05-06T17:11:30.555Z,67.30
2019-05-06T17:13:53.354Z,62.90
2019-05-06T17:16:21.950Z,61.80
2019-05-06T17:18:48.278Z,59.80
2019-05-06T17:21:14.396Z,60.20
2019-05-06T17:23:42.339Z,60.20
2019-05-06T17:26:09.077Z,60.90
2019-05-06T17:28:40.543Z,59.70
2019-05-06T17:31:14.813Z,59.60
2019-05-06T17:33:46.272Z,59.70
2019-05-06T17:36:14.457Z,61.60
2019-05-06T17:38:48.288Z,62.30
2019-05-06T17:41:16.385Z,63.70
2019-05-06T17:43:44.109Z,67.20
2019-05-06T17:46:13.038Z,66.00
2019-05-06T17:48:42.491Z,62.40
2019-05-06T17:51:10.355Z,61.30
2019-05-06T17:53:38.083Z,62.40
2019-05-06T17:56:04.336Z,64.00
2019-05-06T17:58:30.420Z,63.10
2019-05-06T18:00:58.403Z,61.60
2019-05-06T18:03:24.906Z,64.10
2019-05-06T18:05:52.595Z,64.70
2019-05-06T18:08:20.212Z,62.20
2019-05-06T18:10:46.280Z,62.80
2019-05-06T18:13:12.701Z,64.70
2019-05-06T18:15:38.856Z,65.50
2019-05-06T18:18:05.000Z,63.60
2019-05-06T18:20:33.368Z,63.70
2019-05-06T18:22:59.060Z,64.90
2019-05-06T18:25:25.185Z,66.00
2019-05-06T18:27:52.672Z,65.70
2019-05-06T18:30:23.437Z,65.70
2019-05-06T18:32:47.097Z,65.20
2019-05-06T18:35:13.823Z,65.70
2019-05-06T18:37:39.865Z,65.60
2019-05-06T18:40:06.540Z,66.30
2019-05-06T18:42:33.974Z,67.10
2019-05-06T18:45:02.571Z,67.60
2019-05-06T18:47:28.443Z,68.40
2019-05-06T18:49:55.431Z,69.70
2019-05-06T18:52:22.961Z,70.70
2019-05-06T18:54:52.183Z,72.20
2019-05-06T18:57:18.414Z,73.60
2019-05-06T18:59:44.484Z,73.80
2019-05-06T19:02:13.157Z,75.60
2019-05-06T19:04:44.428Z,76.40
2019-05-06T19:07:16.228Z,77.40
2019-05-06T19:09:42.439Z,77.00
2019-05-06T19:12:08.429Z,78.40
2019-05-06T19:14:35.325Z,78.00
2019-05-06T19:17:02.840Z,78.80
2019-05-06T19:19:29.139Z,78.80
2019-05-06T19:21:55.289Z,79.70
2019-05-06T19:24:22.817Z,80.50
2019-05-06T19:26:52.575Z,80.70
2019-05-06T19:29:19.526Z,80.90
2019-05-06T19:31:45.695Z,81.00
2019-05-06T19:34:12.925Z,81.20
2019-05-06T19:36:39.285Z,81.50
2019-05-06T19:39:06.383Z,81.50
2019-05-06T19:41:33.154Z,82.10
2019-05-06T19:44:06.284Z,81.50
2019-05-06T19:46:33.729Z,81.60
2019-05-06T19:49:01.850Z,82.20
2019-05-06T19:51:30.040Z,82.40
2019-05-06T19:54:04.007Z,83.20
2019-05-06T19:56:42.135Z,83.30
2019-05-06T19:59:12.951Z,83.10
2019-05-06T20:01:52.556Z,82.90
2019-05-06T20:04:24.309Z,83.30
2019-05-06T20:06:59.198Z,83.90
2019-05-06T20:09:33.629Z,84.10
2019-05-06T20:12:04.847Z,84.90
2019-05-06T20:14:56.485Z,85.10
2019-05-06T20:17:13.986Z,86.40
2019-05-06T20:19:42.573Z,86.00
2019-05-06T20:22:08.847Z,86.50
2019-05-06T20:24:35.281Z,86.70
2019-05-06T20:27:03.006Z,86.00
2019-05-06T20:29:35.275Z,86.50
2019-05-06T20:32:02.776Z,87.40
2019-05-06T20:34:42.839Z,87.20
2019-05-06T20:37:05.086Z,87.10
2019-05-06T20:39:44.092Z,86.80
2019-05-06T20:42:16.174Z,87.30
2019-05-06T20:44:47.159Z,87.10
2019-05-06T20:47:13.705Z,87.40
2019-05-06T20:49:40.232Z,88.10
2019-05-06T20:52:12.105Z,87.40
2019-05-06T20:54:36.262Z,87.20
2019-05-06T20:57:13.198Z,87.30
2019-05-06T20:59:41.745Z,87.00
2019-05-06T21:02:07.640Z,87.20
2019-05-06T21:04:33.703Z,87.50
2019-05-06T21:06:59.763Z,87.60
2019-05-06T21:09:25.877Z,88.60
2019-05-06T21:11:53.136Z,88.80
2019-05-06T21:14:19.209Z,88.80
2019-05-06T21:16:47.970Z,89.30
2019-05-06T21:19:13.347Z,89.30
2019-05-06T21:21:39.720Z,89.60
2019-05-06T21:24:12.809Z,89.50
2019-05-06T21:26:42.892Z,90.00
2019-05-06T21:29:13.305Z,90.40
2019-05-06T21:31:39.401Z,90.60
2019-05-06T21:34:07.962Z,90.30
2019-05-06T21:36:39.117Z,90.50
2019-05-06T21:39:06.018Z,90.60
2019-05-06T21:41:42.465Z,90.70
2019-05-06T21:44:08.208Z,90.80
2019-05-06T21:46:34.452Z,90.70
2019-05-06T21:49:12.414Z,90.90
2019-05-06T21:51:42.304Z,90.80
2019-05-06T21:54:13.472Z,90.80
2019-05-06T21:56:35.301Z,91.00
2019-05-06T21:59:02.034Z,91.10
2019-05-06T22:01:53.127Z,91.40
2019-05-06T22:04:12.539Z,91.90
2019-05-06T22:06:38.561Z,91.80
2019-05-06T22:09:05.444Z,91.50
2019-05-06T22:11:32.246Z,91.50
2019-05-06T22:14:01.581Z,91.40
2019-05-06T22:16:26.391Z,91.70
2019-05-06T22:18:53.082Z,91.90
2019-05-06T22:21:25.313Z,92.00
2019-05-06T22:23:54.178Z,91.90
2019-05-06T22:26:23.124Z,92.20
2019-05-06T22:28:49.821Z,92.60
2019-05-06T22:31:15.917Z,92.80
2019-05-06T22:33:42.863Z,92.60
2019-05-06T22:36:13.174Z,92.60
2019-05-06T22:38:39.214Z,92.60
2019-05-06T22:41:05.637Z,92.60
2019-05-06T22:43:32.637Z,92.60
2019-05-06T22:45:58.920Z,92.70
2019-05-06T22:48:24.960Z,93.00
2019-05-06T22:50:57.991Z,93.30
2019-05-06T22:53:35.707Z,93.20
2019-05-06T22:56:19.325Z,93.50
2019-05-06T22:59:12.122Z,93.30
2019-05-06T23:01:54.683Z,93.20
2019-05-06T23:04:24.123Z,93.50
2019-05-06T23:09:48.990Z,93.50
2019-05-06T23:12:46.198Z,94.20
2019-05-06T23:15:17.129Z,94.30
2019-05-06T23:17:45.373Z,94.00
2019-05-06T23:20:24.419Z,94.40
2019-05-06T23:22:55.994Z,94.00
2019-05-06T23:25:45.916Z,94.20
2019-05-06T23:28:18.254Z,94.40
2019-05-06T23:30:57.657Z,94.40
2019-05-06T23:33:26.398Z,94.40
2019-05-06T23:35:52.574Z,94.50
2019-05-06T23:38:56.093Z,94.40
2019-05-06T23:45:22.762Z,94.70
2019-05-06T23:48:33.930Z,94.90
2019-05-06T23:51:43.581Z,95.00
2019-05-06T23:54:57.048Z,94.60
2019-05-06T23:57:24.918Z,95.00
2019-05-06T23:59:59.186Z,94.80
